sensor_id;sensor_type;location;lat;lon;timestamp;pressure;altitude;pressure_sealevel;temperature;humidity
20455;BME280;10386;54.314;10.022;2023-03-25T00:02:22;99783.44;;;9.25;100.00
20455;BME280;10386;54.314;10.022;2023-03-25T00:04:51;99782.69;;;9.34;100.00
20455;BME280;10386;54.314;10.022;2023-03-25T00:07:19;99779.50;;;9.29;100.00
20455;BME280;10386;54.314;10.022;2023-03-25T00:09:47;99775.56;;;9.22;100.00
20455;BME280;10386;54.314;10.022;2023-03-25T00:12:15;99766.81;;;9.29;100.00
20455;BME280;10386;54.314;10.022;2023-03-25T00:14:45;99771.31;;;9.08;100.00
20455;BME280;10386;54.314;10.022;2023-03-25T00:17:21;99767.63;;;9.09;100.00
20455;BME280;10386;54.314;10.022;2023-03-25T00:19:48;99763.66;;;9.13;100.00
20455;BME280;10386;54.314;10.022;2023-03-25T00:22:19;99755.41;;;9.15;100.00
20455;BME280;10386;54.314;10.022;2023-03-25T00:24:46;99758.34;;;9.23;100.00
20455;BME280;10386;54.314;10.022;2023-03-25T00:27:14;99769.66;;;9.17;100.00
20455;BME280;10386;54.314;10.022;2023-03-25T00:29:45;99749.47;;;9.21;100.00
20455;BME280;10386;54.314;10.022;2023-03-25T00:32:13;99753.78;;;9.23;100.00
20455;BME280;10386;54.314;10.022;2023-03-25T00:34:40;99737.03;;;9.29;100.00
20455;BME280;10386;54.314;10.022;2023-03-25T00:37:14;99742.31;;;9.31;100.00
20455;BME280;10386;54.314;10.022;2023-03-25T00:39:47;99742.31;;;9.31;100.00
20455;BME280;10386;54.314;10.022;2023-03-25T00:42:15;99739.28;;;9.24;100.00
20455;BME280;10386;54.314;10.022;2023-03-25T00:44:42;99721.72;;;9.39;100.00
20455;BME280;10386;54.314;10.022;2023-03-25T00:47:09;99735.66;;;9.35;100.00
20455;BME280;10386;54.314;10.022;2023-03-25T00:49:37;99729.75;;;9.41;100.00
20455;BME280;10386;54.314;10.022;2023-03-25T00:52:04;99726.56;;;9.36;100.00
20455;BME280;10386;54.314;10.022;2023-03-25T00:54:31;99725.53;;;9.48;100.00
20455;BME280;10386;54.314;10.022;2023-03-25T00:56:59;99719.44;;;9.55;100.00
20455;BME280;10386;54.314;10.022;2023-03-25T00:59:26;99725.06;;;9.43;100.00
20455;BME280;10386;54.314;10.022;2023-03-25T01:01:53;99718.03;;;9.40;100.00
20455;BME280;10386;54.314;10.022;2023-03-25T01:04:21;99713.59;;;9.39;100.00
20455;BME280;10386;54.314;10.022;2023-03-25T01:06:48;99705.31;;;9.52;100.00
20455;BME280;10386;54.314;10.022;2023-03-25T01:09:18;99713.75;;;9.38;100.00
20455;BME280;10386;54.314;10.022;2023-03-25T01:11:46;99703.28;;;9.33;100.00
20455;BME280;10386;54.314;10.022;2023-03-25T01:14:17;99712.25;;;9.34;100.00
20455;BME280;10386;54.314;10.022;2023-03-25T01:16:44;99713.66;;;9.28;100.00
20455;BME280;10386;54.314;10.022;2023-03-25T01:19:12;99712.44;;;9.21;100.00
20455;BME280;10386;54.314;10.022;2023-03-25T01:21:39;99708.25;;;9.28;100.00
20455;BME280;10386;54.314;10.022;2023-03-25T01:24:10;99699.91;;;9.20;100.00
20455;BME280;10386;54.314;10.022;2023-03-25T01:26:37;99686.41;;;9.41;100.00
20455;BME280;10386;54.314;10.022;2023-03-25T01:29:06;99678.78;;;9.35;100.00
20455;BME280;10386;54.314;10.022;2023-03-25T01:31:33;99679.28;;;9.40;100.00
20455;BME280;10386;54.314;10.022;2023-03-25T01:34:00;99684.72;;;9.29;100.00
20455;BME280;10386;54.314;10.022;2023-03-25T01:36:27;99680.28;;;9.28;100.00
20455;BME280;10386;54.314;10.022;2023-03-25T01:38:58;99673.28;;;9.25;100.00
20455;BME280;10386;54.314;10.022;2023-03-25T01:41:26;99673.41;;;9.24;100.00
20455;BME280;10386;54.314;10.022;2023-03-25T01:46:43;99657.09;;;9.35;100.00
20455;BME280;10386;54.314;10.022;2023-03-25T01:51:50;99648.25;;;9.33;100.00
20455;BME280;10386;54.314;10.022;2023-03-25T01:54:19;99648.97;;;9.35;100.00
20455;BME280;10386;54.314;10.022;2023-03-25T01:56:47;99647.88;;;9.37;100.00
20455;BME280;10386;54.314;10.022;2023-03-25T01:59:16;99642.09;;;9.31;100.00
20455;BME280;10386;54.314;10.022;2023-03-25T02:01:45;99627.31;;;9.35;100.00
20455;BME280;10386;54.314;10.022;2023-03-25T02:04:14;99629.97;;;9.25;100.00
20455;BME280;10386;54.314;10.022;2023-03-25T02:06:44;99626.38;;;9.25;100.00
20455;BME280;10386;54.314;10.022;2023-03-25T02:09:15;99620.59;;;9.29;100.00
20455;BME280;10386;54.314;10.022;2023-03-25T02:11:43;99617.53;;;9.23;100.00
20455;BME280;10386;54.314;10.022;2023-03-25T02:14:13;99604.97;;;9.22;100.00
20455;BME280;10386;54.314;10.022;2023-03-25T02:30:25;99567.59;;;9.16;100.00
20455;BME280;10386;54.314;10.022;2023-03-25T02:41:25;99521.53;;;9.06;100.00
20455;BME280;10386;54.314;10.022;2023-03-25T02:44:14;99518.75;;;8.97;100.00
20455;BME280;10386;54.314;10.022;2023-03-25T02:46:48;99503.13;;;9.00;100.00
20455;BME280;10386;54.314;10.022;2023-03-25T02:49:23;99490.88;;;9.06;100.00
20455;BME280;10386;54.314;10.022;2023-03-25T02:52:01;99474.25;;;9.10;100.00
20455;BME280;10386;54.314;10.022;2023-03-25T02:54:30;99464.94;;;9.03;100.00
20455;BME280;10386;54.314;10.022;2023-03-25T02:56:59;99454.13;;;9.03;100.00
20455;BME280;10386;54.314;10.022;2023-03-25T02:59:28;99438.47;;;9.07;100.00
20455;BME280;10386;54.314;10.022;2023-03-25T03:02:01;99435.03;;;9.05;100.00
20455;BME280;10386;54.314;10.022;2023-03-25T03:04:45;99430.75;;;9.02;100.00
20455;BME280;10386;54.314;10.022;2023-03-25T03:07:27;99417.06;;;9.04;100.00
20455;BME280;10386;54.314;10.022;2023-03-25T03:18:32;99372.59;;;8.97;100.00
20455;BME280;10386;54.314;10.022;2023-03-25T03:23:38;99363.94;;;9.03;100.00
20455;BME280;10386;54.314;10.022;2023-03-25T03:27:04;99356.63;;;8.94;100.00
20455;BME280;10386;54.314;10.022;2023-03-25T03:34:50;99325.13;;;8.93;100.00
20455;BME280;10386;54.314;10.022;2023-03-25T03:37:32;99305.81;;;8.97;100.00
20455;BME280;10386;54.314;10.022;2023-03-25T03:40:04;99309.19;;;8.90;100.00
20455;BME280;10386;54.314;10.022;2023-03-25T03:42:43;99303.03;;;8.88;100.00
20455;BME280;10386;54.314;10.022;2023-03-25T03:47:52;99286.25;;;8.94;100.00
20455;BME280;10386;54.314;10.022;2023-03-25T03:50:26;99222.25;;;8.83;100.00
20455;BME280;10386;54.314;10.022;2023-03-25T03:53:07;99209.59;;;8.84;100.00
20455;BME280;10386;54.314;10.022;2023-03-25T03:55:52;99194.91;;;8.77;100.00
20455;BME280;10386;54.314;10.022;2023-03-25T03:58:26;99202.50;;;8.83;100.00
20455;BME280;10386;54.314;10.022;2023-03-25T04:03:33;99192.94;;;8.79;100.00
20455;BME280;10386;54.314;10.022;2023-03-25T04:06:29;99192.78;;;8.80;100.00
20455;BME280;10386;54.314;10.022;2023-03-25T04:11:41;99182.22;;;8.77;100.00
20455;BME280;10386;54.314;10.022;2023-03-25T04:14:10;99185.22;;;8.74;100.00
20455;BME280;10386;54.314;10.022;2023-03-25T04:16:37;99172.28;;;8.87;100.00
20455;BME280;10386;54.314;10.022;2023-03-25T04:19:05;99171.72;;;8.84;100.00
20455;BME280;10386;54.314;10.022;2023-03-25T04:21:34;99162.19;;;8.80;100.00
20455;BME280;10386;54.314;10.022;2023-03-25T04:24:01;99161.19;;;8.90;100.00
20455;BME280;10386;54.314;10.022;2023-03-25T04:26:28;99149.28;;;9.02;100.00
20455;BME280;10386;54.314;10.022;2023-03-25T04:29:00;99157.38;;;8.93;100.00
20455;BME280;10386;54.314;10.022;2023-03-25T04:31:28;99153.78;;;8.83;100.00
20455;BME280;10386;54.314;10.022;2023-03-25T04:33:57;99148.69;;;8.99;100.00
20455;BME280;10386;54.314;10.022;2023-03-25T04:36:25;99154.06;;;8.80;100.00
20455;BME280;10386;54.314;10.022;2023-03-25T04:38:54;99154.03;;;8.70;100.00
20455;BME280;10386;54.314;10.022;2023-03-25T04:41:22;99152.00;;;8.53;100.00
20455;BME280;10386;54.314;10.022;2023-03-25T04:43:48;99153.91;;;8.42;100.00
20455;BME280;10386;54.314;10.022;2023-03-25T04:46:17;99153.34;;;8.38;100.00
20455;BME280;10386;54.314;10.022;2023-03-25T04:48:44;99152.31;;;8.30;100.00
20455;BME280;10386;54.314;10.022;2023-03-25T04:51:13;99145.19;;;8.29;100.00
20455;BME280;10386;54.314;10.022;2023-03-25T04:53:41;99136.81;;;8.32;100.00
20455;BME280;10386;54.314;10.022;2023-03-25T04:56:12;99124.44;;;8.29;100.00
20455;BME280;10386;54.314;10.022;2023-03-25T04:58:42;99123.00;;;8.25;100.00
20455;BME280;10386;54.314;10.022;2023-03-25T05:03:47;99096.59;;;8.38;100.00
20455;BME280;10386;54.314;10.022;2023-03-25T05:06:16;99098.69;;;8.25;100.00
20455;BME280;10386;54.314;10.022;2023-03-25T05:08:43;99087.16;;;8.33;100.00
20455;BME280;10386;54.314;10.022;2023-03-25T05:11:10;99081.06;;;8.40;100.00
20455;BME280;10386;54.314;10.022;2023-03-25T05:13:37;99071.94;;;8.32;100.00
20455;BME280;10386;54.314;10.022;2023-03-25T05:16:03;99067.13;;;8.35;100.00
20455;BME280;10386;54.314;10.022;2023-03-25T05:18:30;99070.94;;;8.33;100.00
20455;BME280;10386;54.314;10.022;2023-03-25T05:20:57;99075.34;;;8.34;100.00
20455;BME280;10386;54.314;10.022;2023-03-25T05:23:26;99062.13;;;8.31;100.00
20455;BME280;10386;54.314;10.022;2023-03-25T05:25:53;99062.28;;;8.29;100.00
20455;BME280;10386;54.314;10.022;2023-03-25T05:28:20;99053.44;;;8.27;100.00
20455;BME280;10386;54.314;10.022;2023-03-25T05:30:46;99049.59;;;8.30;100.00
20455;BME280;10386;54.314;10.022;2023-03-25T05:33:15;99046.34;;;8.36;100.00
20455;BME280;10386;54.314;10.022;2023-03-25T05:35:43;99021.88;;;8.47;100.00
20455;BME280;10386;54.314;10.022;2023-03-25T05:38:11;99039.66;;;8.40;100.00
20455;BME280;10386;54.314;10.022;2023-03-25T05:40:39;99025.00;;;8.42;100.00
20455;BME280;10386;54.314;10.022;2023-03-25T05:43:06;99028.75;;;8.51;100.00
20455;BME280;10386;54.314;10.022;2023-03-25T05:45:33;99029.72;;;8.50;100.00
20455;BME280;10386;54.314;10.022;2023-03-25T05:48:03;99023.31;;;8.41;100.00
20455;BME280;10386;54.314;10.022;2023-03-25T05:50:30;99012.06;;;8.46;100.00
20455;BME280;10386;54.314;10.022;2023-03-25T05:52:57;99008.78;;;8.42;100.00
20455;BME280;10386;54.314;10.022;2023-03-25T05:55:26;98995.13;;;8.53;100.00
20455;BME280;10386;54.314;10.022;2023-03-25T05:57:53;99002.66;;;8.50;100.00
20455;BME280;10386;54.314;10.022;2023-03-25T06:00:20;99001.13;;;8.47;100.00
20455;BME280;10386;54.314;10.022;2023-03-25T06:02:49;98991.41;;;8.45;100.00
20455;BME280;10386;54.314;10.022;2023-03-25T06:05:17;98988.59;;;8.46;100.00
20455;BME280;10386;54.314;10.022;2023-03-25T06:07:49;98996.81;;;8.45;100.00
20455;BME280;10386;54.314;10.022;2023-03-25T06:10:17;98985.03;;;8.55;100.00
20455;BME280;10386;54.314;10.022;2023-03-25T06:12:45;98978.91;;;8.53;100.00
20455;BME280;10386;54.314;10.022;2023-03-25T06:15:15;98956.84;;;8.39;100.00
20455;BME280;10386;54.314;10.022;2023-03-25T06:17:43;98964.94;;;8.39;100.00
20455;BME280;10386;54.314;10.022;2023-03-25T06:20:13;98961.97;;;8.32;100.00
20455;BME280;10386;54.314;10.022;2023-03-25T06:22:44;98959.09;;;8.34;100.00
20455;BME280;10386;54.314;10.022;2023-03-25T06:25:14;98960.66;;;8.27;100.00
20455;BME280;10386;54.314;10.022;2023-03-25T06:27:47;98956.13;;;8.27;100.00
20455;BME280;10386;54.314;10.022;2023-03-25T06:30:17;98957.53;;;8.22;100.00
20455;BME280;10386;54.314;10.022;2023-03-25T06:32:44;98935.91;;;8.22;100.00
20455;BME280;10386;54.314;10.022;2023-03-25T06:35:17;98932.09;;;8.24;100.00
20455;BME280;10386;54.314;10.022;2023-03-25T06:37:47;98935.06;;;8.31;100.00
20455;BME280;10386;54.314;10.022;2023-03-25T06:40:14;98922.97;;;8.35;100.00
20455;BME280;10386;54.314;10.022;2023-03-25T06:42:41;98931.38;;;8.32;100.00
20455;BME280;10386;54.314;10.022;2023-03-25T06:45:08;98786.81;;;8.36;100.00
20455;BME280;10386;54.314;10.022;2023-03-25T06:47:35;98785.41;;;8.32;100.00
20455;BME280;10386;54.314;10.022;2023-03-25T06:50:03;98791.97;;;8.29;100.00
20455;BME280;10386;54.314;10.022;2023-03-25T06:52:30;98795.78;;;8.36;100.00
20455;BME280;10386;54.314;10.022;2023-03-25T06:54:56;98786.53;;;8.39;100.00
20455;BME280;10386;54.314;10.022;2023-03-25T06:57:23;98781.41;;;8.36;100.00
20455;BME280;10386;54.314;10.022;2023-03-25T06:59:50;98786.69;;;8.28;100.00
20455;BME280;10386;54.314;10.022;2023-03-25T07:02:16;98778.00;;;8.43;100.00
20455;BME280;10386;54.314;10.022;2023-03-25T07:04:43;98772.69;;;8.51;100.00
20455;BME280;10386;54.314;10.022;2023-03-25T07:07:10;98774.53;;;8.60;100.00
20455;BME280;10386;54.314;10.022;2023-03-25T07:09:37;98772.53;;;8.62;100.00
20455;BME280;10386;54.314;10.022;2023-03-25T07:12:04;98674.25;;;8.71;100.00
20455;BME280;10386;54.314;10.022;2023-03-25T07:14:34;98678.44;;;8.66;100.00
20455;BME280;10386;54.314;10.022;2023-03-25T07:17:01;98677.13;;;8.70;100.00
20455;BME280;10386;54.314;10.022;2023-03-25T07:19:27;98669.53;;;8.56;100.00
20455;BME280;10386;54.314;10.022;2023-03-25T07:21:54;98670.25;;;8.75;100.00
20455;BME280;10386;54.314;10.022;2023-03-25T07:24:21;98643.50;;;8.72;100.00
20455;BME280;10386;54.314;10.022;2023-03-25T07:26:48;98638.06;;;8.82;100.00
20455;BME280;10386;54.314;10.022;2023-03-25T07:29:14;98643.59;;;8.80;100.00
20455;BME280;10386;54.314;10.022;2023-03-25T07:31:41;98638.28;;;8.71;100.00
20455;BME280;10386;54.314;10.022;2023-03-25T07:34:08;98648.53;;;8.67;100.00
20455;BME280;10386;54.314;10.022;2023-03-25T07:36:35;98614.22;;;8.68;100.00
20455;BME280;10386;54.314;10.022;2023-03-25T07:39:01;98608.13;;;8.66;100.00
20455;BME280;10386;54.314;10.022;2023-03-25T07:41:28;98603.09;;;8.71;100.00
20455;BME280;10386;54.314;10.022;2023-03-25T07:43:55;98587.06;;;8.87;100.00
20455;BME280;10386;54.314;10.022;2023-03-25T07:46:22;98606.69;;;8.89;100.00
20455;BME280;10386;54.314;10.022;2023-03-25T07:48:51;98605.00;;;8.88;100.00
20455;BME280;10386;54.314;10.022;2023-03-25T07:51:17;98613.94;;;8.88;100.00
20455;BME280;10386;54.314;10.022;2023-03-25T07:53:45;98606.03;;;9.04;100.00
20455;BME280;10386;54.314;10.022;2023-03-25T07:56:14;98605.22;;;9.12;100.00
20455;BME280;10386;54.314;10.022;2023-03-25T07:58:41;98603.16;;;9.23;100.00
20455;BME280;10386;54.314;10.022;2023-03-25T08:01:12;98600.19;;;9.17;100.00
20455;BME280;10386;54.314;10.022;2023-03-25T08:03:39;98586.22;;;9.64;100.00
20455;BME280;10386;54.314;10.022;2023-03-25T08:06:07;98575.59;;;9.88;100.00
20455;BME280;10386;54.314;10.022;2023-03-25T08:08:34;98590.09;;;9.79;100.00
20455;BME280;10386;54.314;10.022;2023-03-25T08:11:01;98590.28;;;9.60;100.00
20455;BME280;10386;54.314;10.022;2023-03-25T08:13:28;98599.16;;;9.70;100.00
20455;BME280;10386;54.314;10.022;2023-03-25T08:15:55;98597.31;;;9.70;100.00
20455;BME280;10386;54.314;10.022;2023-03-25T08:18:22;98597.63;;;9.67;100.00
20455;BME280;10386;54.314;10.022;2023-03-25T08:20:49;98596.41;;;9.87;100.00
20455;BME280;10386;54.314;10.022;2023-03-25T08:23:17;98585.28;;;10.16;100.00
20455;BME280;10386;54.314;10.022;2023-03-25T08:25:47;98617.13;;;9.96;100.00
20455;BME280;10386;54.314;10.022;2023-03-25T08:28:20;98630.94;;;10.03;100.00
20455;BME280;10386;54.314;10.022;2023-03-25T08:30:51;98645.81;;;9.81;100.00
20455;BME280;10386;54.314;10.022;2023-03-25T08:33:21;98648.97;;;9.94;100.00
20455;BME280;10386;54.314;10.022;2023-03-25T08:35:56;98666.69;;;10.06;100.00
20455;BME280;10386;54.314;10.022;2023-03-25T08:38:23;98668.31;;;10.17;100.00
20455;BME280;10386;54.314;10.022;2023-03-25T08:40:50;98677.69;;;10.22;100.00
20455;BME280;10386;54.314;10.022;2023-03-25T08:43:17;98696.94;;;10.19;100.00
20455;BME280;10386;54.314;10.022;2023-03-25T08:45:44;98708.19;;;10.24;100.00
20455;BME280;10386;54.314;10.022;2023-03-25T08:48:10;98728.41;;;9.95;100.00
20455;BME280;10386;54.314;10.022;2023-03-25T08:50:37;98735.53;;;9.78;100.00
20455;BME280;10386;54.314;10.022;2023-03-25T08:53:04;98742.66;;;9.79;100.00
20455;BME280;10386;54.314;10.022;2023-03-25T08:55:32;98745.38;;;9.79;100.00
20455;BME280;10386;54.314;10.022;2023-03-25T08:58:03;98758.22;;;9.77;100.00
20455;BME280;10386;54.314;10.022;2023-03-25T09:00:31;98774.34;;;9.79;100.00
20455;BME280;10386;54.314;10.022;2023-03-25T09:02:58;98792.19;;;9.72;100.00
20455;BME280;10386;54.314;10.022;2023-03-25T09:05:26;98800.25;;;9.81;100.00
20455;BME280;10386;54.314;10.022;2023-03-25T09:07:53;98815.78;;;9.89;100.00
20455;BME280;10386;54.314;10.022;2023-03-25T09:10:19;98837.44;;;9.89;100.00
20455;BME280;10386;54.314;10.022;2023-03-25T09:12:46;98864.75;;;9.78;100.00
20455;BME280;10386;54.314;10.022;2023-03-25T09:15:13;98871.88;;;9.79;100.00
20455;BME280;10386;54.314;10.022;2023-03-25T09:17:40;98887.47;;;9.67;100.00
20455;BME280;10386;54.314;10.022;2023-03-25T09:20:08;98906.75;;;9.64;100.00
20455;BME280;10386;54.314;10.022;2023-03-25T09:22:37;98919.00;;;9.68;100.00
20455;BME280;10386;54.314;10.022;2023-03-25T09:25:05;98927.81;;;9.70;100.00
20455;BME280;10386;54.314;10.022;2023-03-25T09:27:35;98945.28;;;9.58;100.00
20455;BME280;10386;54.314;10.022;2023-03-25T09:30:03;98972.47;;;9.93;100.00
20455;BME280;10386;54.314;10.022;2023-03-25T09:32:30;98991.66;;;9.82;100.00
20455;BME280;10386;54.314;10.022;2023-03-25T09:34:57;98998.59;;;9.94;100.00
20455;BME280;10386;54.314;10.022;2023-03-25T09:37:26;99005.72;;;9.95;100.00
20455;BME280;10386;54.314;10.022;2023-03-25T09:39:53;99013.53;;;10.08;100.00
20455;BME280;10386;54.314;10.022;2023-03-25T09:50:47;99086.47;;;10.01;100.00
20455;BME280;10386;54.314;10.022;2023-03-25T09:55:56;99114.59;;;9.91;100.00
20455;BME280;10386;54.314;10.022;2023-03-25T09:58:39;99139.56;;;9.66;100.00
20455;BME280;10386;54.314;10.022;2023-03-25T10:01:16;99127.75;;;9.48;100.00
20455;BME280;10386;54.314;10.022;2023-03-25T10:06:29;99136.44;;;9.33;100.00
20455;BME280;10386;54.314;10.022;2023-03-25T10:09:14;99138.44;;;9.31;100.00
20455;BME280;10386;54.314;10.022;2023-03-25T10:14:43;99140.72;;;9.07;100.00
20455;BME280;10386;54.314;10.022;2023-03-25T10:25:59;99142.13;;;9.11;100.00
20455;BME280;10386;54.314;10.022;2023-03-25T10:28:33;99135.72;;;8.93;100.00
20455;BME280;10386;54.314;10.022;2023-03-25T10:31:04;99143.53;;;8.86;100.00
20455;BME280;10386;54.314;10.022;2023-03-25T10:33:34;99142.41;;;8.89;100.00
20455;BME280;10386;54.314;10.022;2023-03-25T10:36:04;99141.44;;;8.99;100.00
20455;BME280;10386;54.314;10.022;2023-03-25T10:38:33;99138.44;;;9.02;100.00
20455;BME280;10386;54.314;10.022;2023-03-25T10:41:23;99137.03;;;9.17;100.00
20455;BME280;10386;54.314;10.022;2023-03-25T10:43:52;99132.75;;;9.43;100.00
20455;BME280;10386;54.314;10.022;2023-03-25T10:48:54;99150.44;;;9.47;100.00
20455;BME280;10386;54.314;10.022;2023-03-25T10:51:29;99158.25;;;9.31;100.00
20455;BME280;10386;54.314;10.022;2023-03-25T10:53:58;99155.53;;;9.22;100.00
20455;BME280;10386;54.314;10.022;2023-03-25T10:56:29;99160.66;;;9.06;100.00
20455;BME280;10386;54.314;10.022;2023-03-25T10:59:01;99159.41;;;9.19;100.00
20455;BME280;10386;54.314;10.022;2023-03-25T11:01:38;99159.94;;;9.04;100.00
20455;BME280;10386;54.314;10.022;2023-03-25T11:04:09;99160.66;;;9.06;100.00
20455;BME280;10386;54.314;10.022;2023-03-25T11:06:40;99162.06;;;8.91;100.00
20455;BME280;10386;54.314;10.022;2023-03-25T11:09:11;99169.75;;;8.86;100.00
20455;BME280;10386;54.314;10.022;2023-03-25T11:11:40;99167.75;;;8.88;100.00
20455;BME280;10386;54.314;10.022;2023-03-25T11:14:09;99167.75;;;8.88;100.00
20455;BME280;10386;54.314;10.022;2023-03-25T11:16:42;99166.59;;;8.81;100.00
20455;BME280;10386;54.314;10.022;2023-03-25T11:19:19;99160.38;;;8.99;100.00
20455;BME280;10386;54.314;10.022;2023-03-25T11:21:53;99167.09;;;9.14;100.00
20455;BME280;10386;54.314;10.022;2023-03-25T11:24:22;99152.16;;;9.57;100.00
20455;BME280;10386;54.314;10.022;2023-03-25T11:26:54;99154.53;;;9.70;100.00
20455;BME280;10386;54.314;10.022;2023-03-25T11:29:24;99140.06;;;10.17;100.00
20455;BME280;10386;54.314;10.022;2023-03-25T11:32:15;99126.31;;;10.64;100.00
20455;BME280;10386;54.314;10.022;2023-03-25T11:34:46;99124.34;;;10.84;100.00
20455;BME280;10386;54.314;10.022;2023-03-25T11:37:17;99116.34;;;10.82;100.00
20455;BME280;10386;54.314;10.022;2023-03-25T11:39:52;99123.22;;;11.03;100.00
20455;BME280;10386;54.314;10.022;2023-03-25T11:42:31;99133.72;;;10.89;100.00
20455;BME280;10386;54.314;10.022;2023-03-25T11:45:00;99163.28;;;10.65;100.00
20455;BME280;10386;54.314;10.022;2023-03-25T11:47:33;99258.75;;;10.51;100.00
20455;BME280;10386;54.314;10.022;2023-03-25T11:50:01;99276.34;;;10.09;100.00
20455;BME280;10386;54.314;10.022;2023-03-25T11:52:40;99284.31;;;9.73;100.00
20455;BME280;10386;54.314;10.022;2023-03-25T11:55:29;99293.44;;;9.62;100.00
20455;BME280;10386;54.314;10.022;2023-03-25T11:57:58;99282.75;;;9.70;100.00
20455;BME280;10386;54.314;10.022;2023-03-25T12:00:31;99285.47;;;9.70;100.00
20455;BME280;10386;54.314;10.022;2023-03-25T12:05:28;99286.16;;;9.63;100.00
20455;BME280;10386;54.314;10.022;2023-03-25T12:08:17;99281.59;;;9.63;100.00
20455;BME280;10386;54.314;10.022;2023-03-25T12:11:06;99290.03;;;9.79;100.00
20455;BME280;10386;54.314;10.022;2023-03-25T12:16:29;99287.59;;;9.57;100.00
20455;BME280;10386;54.314;10.022;2023-03-25T12:19:11;99283.31;;;9.64;100.00
20455;BME280;10386;54.314;10.022;2023-03-25T12:27:41;99297.56;;;9.76;100.00
20455;BME280;10386;54.314;10.022;2023-03-25T12:32:49;99307.69;;;9.55;100.00
20455;BME280;10386;54.314;10.022;2023-03-25T12:35:53;99303.78;;;9.29;100.00
20455;BME280;10386;54.314;10.022;2023-03-25T12:41:45;99302.16;;;9.17;100.00
20455;BME280;10386;54.314;10.022;2023-03-25T12:46:57;99295.78;;;9.28;100.00
20455;BME280;10386;54.314;10.022;2023-03-25T12:52:26;99292.94;;;9.29;100.00
20455;BME280;10386;54.314;10.022;2023-03-25T13:03:31;99274.94;;;9.19;100.00
20455;BME280;10386;54.314;10.022;2023-03-25T13:09:01;99252.81;;;10.00;100.00
20455;BME280;10386;54.314;10.022;2023-03-25T13:11:46;99259.94;;;9.92;100.00
20455;BME280;10386;54.314;10.022;2023-03-25T13:14:23;99272.78;;;9.90;100.00
20455;BME280;10386;54.314;10.022;2023-03-25T13:16:54;99275.06;;;9.75;100.00
20455;BME280;10386;54.314;10.022;2023-03-25T13:19:25;99271.53;;;10.22;100.00
20455;BME280;10386;54.314;10.022;2023-03-25T13:21:56;99276.81;;;10.05;100.00
20455;BME280;10386;54.314;10.022;2023-03-25T13:24:46;99273.38;;;10.22;100.00
20455;BME280;10386;54.314;10.022;2023-03-25T13:27:15;99292.19;;;9.95;100.00
20455;BME280;10386;54.314;10.022;2023-03-25T13:29:46;99298.03;;;9.90;100.00
20455;BME280;10386;54.314;10.022;2023-03-25T13:32:22;99297.84;;;9.73;100.00
20455;BME280;10386;54.314;10.022;2023-03-25T13:34:57;99293.59;;;9.70;100.00
20455;BME280;10386;54.314;10.022;2023-03-25T13:37:56;99298.56;;;9.75;100.00
20455;BME280;10386;54.314;10.022;2023-03-25T13:40:27;99302.16;;;9.75;100.00
20455;BME280;10386;54.314;10.022;2023-03-25T13:46:07;99299.63;;;10.02;100.00
20455;BME280;10386;54.314;10.022;2023-03-25T13:48:42;99297.31;;;9.98;100.00
20455;BME280;10386;54.314;10.022;2023-03-25T13:51:12;99296.91;;;10.12;100.00
20455;BME280;10386;54.314;10.022;2023-03-25T13:53:42;99296.94;;;10.21;100.00
20455;BME280;10386;54.314;10.022;2023-03-25T13:56:33;99305.34;;;10.09;100.00
20455;BME280;10386;54.314;10.022;2023-03-25T14:08:36;99284.28;;;10.58;100.00
20455;BME280;10386;54.314;10.022;2023-03-25T14:11:27;99300.72;;;10.47;100.00
20455;BME280;10386;54.314;10.022;2023-03-25T14:13:59;99304.44;;;10.37;100.00
20455;BME280;10386;54.314;10.022;2023-03-25T14:16:33;99318.47;;;10.32;100.00
20455;BME280;10386;54.314;10.022;2023-03-25T14:19:03;99318.44;;;10.13;100.00
20455;BME280;10386;54.314;10.022;2023-03-25T14:24:32;99334.38;;;9.78;100.00
20455;BME280;10386;54.314;10.022;2023-03-25T14:27:03;99331.97;;;9.75;100.00
20455;BME280;10386;54.314;10.022;2023-03-25T14:29:41;99328.97;;;9.78;100.00
20455;BME280;10386;54.314;10.022;2023-03-25T14:34:43;99314.72;;;9.95;100.00
20455;BME280;10386;54.314;10.022;2023-03-25T14:39:42;99317.72;;;9.92;100.00
20455;BME280;10386;54.314;10.022;2023-03-25T14:42:22;99345.44;;;10.05;100.00
20455;BME280;10386;54.314;10.022;2023-03-25T14:44:53;99347.59;;;10.21;100.00
20455;BME280;10386;54.314;10.022;2023-03-25T14:47:51;99340.97;;;10.52;100.00
20455;BME280;10386;54.314;10.022;2023-03-25T14:57:47;99336.28;;;10.44;100.00
20455;BME280;10386;54.314;10.022;2023-03-25T15:00:22;99366.16;;;10.25;100.00
20455;BME280;10386;54.314;10.022;2023-03-25T15:03:14;99368.81;;;10.06;100.00
20455;BME280;10386;54.314;10.022;2023-03-25T15:05:44;99364.69;;;10.02;100.00
20455;BME280;10386;54.314;10.022;2023-03-25T15:08:24;99372.50;;;9.96;100.00
20455;BME280;10386;54.314;10.022;2023-03-25T15:11:08;99373.47;;;9.85;100.00
20455;BME280;10386;54.314;10.022;2023-03-25T15:13:42;99378.34;;;9.91;100.00
20455;BME280;10386;54.314;10.022;2023-03-25T15:16:17;99376.31;;;9.74;100.00
20455;BME280;10386;54.314;10.022;2023-03-25T15:21:13;99375.63;;;9.82;100.00
20455;BME280;10386;54.314;10.022;2023-03-25T15:23:45;99383.63;;;9.93;100.00
20455;BME280;10386;54.314;10.022;2023-03-25T15:34:29;99391.41;;;9.67;100.00
20455;BME280;10386;54.314;10.022;2023-03-25T15:40:30;99422.16;;;9.48;100.00
20455;BME280;10386;54.314;10.022;2023-03-25T15:48:42;99416.25;;;9.72;100.00
20455;BME280;10386;54.314;10.022;2023-03-25T15:55:04;99422.00;;;9.49;100.00
20455;BME280;10386;54.314;10.022;2023-03-25T15:57:30;99429.50;;;9.36;100.00